sensor_id;sensor_type;location;lat;lon;timestamp;temperature;humidity
2453;DHT22;63678;47.994;7.854;2022-10-22T00:01:15;14.30;99.90
2453;DHT22;63678;47.994;7.854;2022-10-22T00:06:21;14.30;99.90
2453;DHT22;63678;47.994;7.854;2022-10-22T00:11:26;14.30;99.90
2453;DHT22;63678;47.994;7.854;2022-10-22T00:16:31;14.40;99.90
2453;DHT22;63678;47.994;7.854;2022-10-22T00:19:03;14.30;99.90
2453;DHT22;63678;47.994;7.854;2022-10-22T00:21:36;14.30;99.90
2453;DHT22;63678;47.994;7.854;2022-10-22T00:24:08;14.30;99.90
2453;DHT22;63678;47.994;7.854;2022-10-22T00:26:40;14.40;99.90
2453;DHT22;63678;47.994;7.854;2022-10-22T00:29:13;14.30;99.90
2453;DHT22;63678;47.994;7.854;2022-10-22T00:31:45;14.20;99.90
2453;DHT22;63678;47.994;7.854;2022-10-22T00:34:21;14.30;99.90
2453;DHT22;63678;47.994;7.854;2022-10-22T00:39:27;14.30;99.90
2453;DHT22;63678;47.994;7.854;2022-10-22T00:41:59;14.20;99.90
2453;DHT22;63678;47.994;7.854;2022-10-22T00:51:00;14.10;99.90
2453;DHT22;63678;47.994;7.854;2022-10-22T00:53:41;14.10;99.90
2453;DHT22;63678;47.994;7.854;2022-10-22T00:56:16;14.10;99.90
2453;DHT22;63678;47.994;7.854;2022-10-22T00:58:55;14.10;99.90
2453;DHT22;63678;47.994;7.854;2022-10-22T01:01:30;14.00;99.90
2453;DHT22;63678;47.994;7.854;2022-10-22T01:04:03;14.10;99.90
2453;DHT22;63678;47.994;7.854;2022-10-22T01:06:36;14.00;99.90
2453;DHT22;63678;47.994;7.854;2022-10-22T01:09:40;14.00;99.90
2453;DHT22;63678;47.994;7.854;2022-10-22T01:12:44;14.10;99.90
2453;DHT22;63678;47.994;7.854;2022-10-22T01:15:32;14.10;99.90
2453;DHT22;63678;47.994;7.854;2022-10-22T01:18:15;14.10;99.90
2453;DHT22;63678;47.994;7.854;2022-10-22T01:21:05;14.10;99.90
2453;DHT22;63678;47.994;7.854;2022-10-22T01:30:05;14.20;99.90
2453;DHT22;63678;47.994;7.854;2022-10-22T01:32:54;14.20;99.90
2453;DHT22;63678;47.994;7.854;2022-10-22T01:35:36;14.20;99.90
2453;DHT22;63678;47.994;7.854;2022-10-22T01:38:17;14.20;99.90
2453;DHT22;63678;47.994;7.854;2022-10-22T01:40:51;14.20;99.90
2453;DHT22;63678;47.994;7.854;2022-10-22T01:45:59;14.20;99.90
2453;DHT22;63678;47.994;7.854;2022-10-22T01:57:35;14.30;99.90
2453;DHT22;63678;47.994;7.854;2022-10-22T02:00:12;14.30;99.90
2453;DHT22;63678;47.994;7.854;2022-10-22T02:05:55;14.30;99.90
2453;DHT22;63678;47.994;7.854;2022-10-22T02:08:33;14.40;99.90
2453;DHT22;63678;47.994;7.854;2022-10-22T02:11:06;14.30;99.90
2453;DHT22;63678;47.994;7.854;2022-10-22T02:13:51;14.30;99.90
2453;DHT22;63678;47.994;7.854;2022-10-22T02:16:34;14.30;99.90
2453;DHT22;63678;47.994;7.854;2022-10-22T02:19:31;14.30;99.90
2453;DHT22;63678;47.994;7.854;2022-10-22T02:22:10;14.20;99.90
2453;DHT22;63678;47.994;7.854;2022-10-22T02:24:42;14.10;99.90
2453;DHT22;63678;47.994;7.854;2022-10-22T02:27:42;14.20;99.90
2453;DHT22;63678;47.994;7.854;2022-10-22T02:30:19;14.20;99.90
2453;DHT22;63678;47.994;7.854;2022-10-22T02:33:03;14.20;99.90
2453;DHT22;63678;47.994;7.854;2022-10-22T02:35:41;14.20;99.90
2453;DHT22;63678;47.994;7.854;2022-10-22T02:38:15;14.20;99.90
2453;DHT22;63678;47.994;7.854;2022-10-22T02:40:48;14.20;99.90
2453;DHT22;63678;47.994;7.854;2022-10-22T02:43:23;14.20;99.90
2453;DHT22;63678;47.994;7.854;2022-10-22T02:45:56;14.10;99.90
2453;DHT22;63678;47.994;7.854;2022-10-22T02:51:02;14.10;99.90
2453;DHT22;63678;47.994;7.854;2022-10-22T02:53:34;14.00;99.90
2453;DHT22;63678;47.994;7.854;2022-10-22T02:56:07;14.10;99.90
2453;DHT22;63678;47.994;7.854;2022-10-22T02:58:39;14.10;99.90
2453;DHT22;63678;47.994;7.854;2022-10-22T03:01:12;14.00;99.90
2453;DHT22;63678;47.994;7.854;2022-10-22T03:06:37;14.20;99.90
2453;DHT22;63678;47.994;7.854;2022-10-22T03:09:10;14.20;99.90
2453;DHT22;63678;47.994;7.854;2022-10-22T03:11:42;14.20;99.90
2453;DHT22;63678;47.994;7.854;2022-10-22T03:16:47;14.20;99.90
2453;DHT22;63678;47.994;7.854;2022-10-22T03:19:20;14.10;99.90
2453;DHT22;63678;47.994;7.854;2022-10-22T03:21:55;14.10;99.90
2453;DHT22;63678;47.994;7.854;2022-10-22T03:24:33;14.10;99.90
2453;DHT22;63678;47.994;7.854;2022-10-22T03:27:07;14.10;99.90
2453;DHT22;63678;47.994;7.854;2022-10-22T03:29:41;14.10;99.90
2453;DHT22;63678;47.994;7.854;2022-10-22T03:32:13;14.00;99.90
2453;DHT22;63678;47.994;7.854;2022-10-22T03:34:46;14.00;99.90
2453;DHT22;63678;47.994;7.854;2022-10-22T03:37:19;14.00;99.90
2453;DHT22;63678;47.994;7.854;2022-10-22T03:39:53;14.00;99.90
2453;DHT22;63678;47.994;7.854;2022-10-22T03:42:26;13.90;99.90
2453;DHT22;63678;47.994;7.854;2022-10-22T03:44:58;13.90;99.90
2453;DHT22;63678;47.994;7.854;2022-10-22T03:47:30;13.90;99.90
2453;DHT22;63678;47.994;7.854;2022-10-22T03:50:04;13.90;99.90
2453;DHT22;63678;47.994;7.854;2022-10-22T03:52:38;13.90;99.90
2453;DHT22;63678;47.994;7.854;2022-10-22T03:55:10;13.80;99.90
2453;DHT22;63678;47.994;7.854;2022-10-22T03:57:43;13.80;99.90
2453;DHT22;63678;47.994;7.854;2022-10-22T04:00:15;13.70;99.90
2453;DHT22;63678;47.994;7.854;2022-10-22T04:02:48;13.70;99.90
2453;DHT22;63678;47.994;7.854;2022-10-22T04:05:41;13.70;99.90
2453;DHT22;63678;47.994;7.854;2022-10-22T04:08:14;13.70;99.90
2453;DHT22;63678;47.994;7.854;2022-10-22T04:10:50;13.60;99.90
2453;DHT22;63678;47.994;7.854;2022-10-22T04:13:23;13.60;99.90
2453;DHT22;63678;47.994;7.854;2022-10-22T04:15:55;13.60;99.90
2453;DHT22;63678;47.994;7.854;2022-10-22T04:18:38;13.50;99.90
2453;DHT22;63678;47.994;7.854;2022-10-22T04:21:17;13.50;99.90
2453;DHT22;63678;47.994;7.854;2022-10-22T04:23:51;13.40;99.90
2453;DHT22;63678;47.994;7.854;2022-10-22T04:26:24;13.50;99.90
2453;DHT22;63678;47.994;7.854;2022-10-22T04:28:57;13.50;99.90
2453;DHT22;63678;47.994;7.854;2022-10-22T04:31:29;13.60;99.90
2453;DHT22;63678;47.994;7.854;2022-10-22T04:34:01;13.60;99.90
2453;DHT22;63678;47.994;7.854;2022-10-22T04:36:34;13.50;99.90
2453;DHT22;63678;47.994;7.854;2022-10-22T04:39:06;13.50;99.90
2453;DHT22;63678;47.994;7.854;2022-10-22T04:41:39;13.50;99.90
2453;DHT22;63678;47.994;7.854;2022-10-22T04:44:11;13.40;99.90
2453;DHT22;63678;47.994;7.854;2022-10-22T04:49:20;13.40;99.90
2453;DHT22;63678;47.994;7.854;2022-10-22T04:51:52;13.40;99.90
2453;DHT22;63678;47.994;7.854;2022-10-22T04:54:25;13.40;99.90
2453;DHT22;63678;47.994;7.854;2022-10-22T04:59:36;13.40;99.90
2453;DHT22;63678;47.994;7.854;2022-10-22T05:04:43;13.40;99.90
2453;DHT22;63678;47.994;7.854;2022-10-22T05:07:15;13.30;99.90
2453;DHT22;63678;47.994;7.854;2022-10-22T05:12:20;13.20;99.90
2453;DHT22;63678;47.994;7.854;2022-10-22T05:14:53;13.20;99.90
2453;DHT22;63678;47.994;7.854;2022-10-22T05:17:26;13.20;99.90
2453;DHT22;63678;47.994;7.854;2022-10-22T05:19:58;13.30;99.90
2453;DHT22;63678;47.994;7.854;2022-10-22T05:22:32;13.20;99.90
2453;DHT22;63678;47.994;7.854;2022-10-22T05:25:06;13.20;99.90
2453;DHT22;63678;47.994;7.854;2022-10-22T05:27:38;13.20;99.90
2453;DHT22;63678;47.994;7.854;2022-10-22T05:30:11;13.20;99.90
2453;DHT22;63678;47.994;7.854;2022-10-22T05:32:44;13.20;99.90
2453;DHT22;63678;47.994;7.854;2022-10-22T05:35:16;13.30;99.90
2453;DHT22;63678;47.994;7.854;2022-10-22T05:37:48;13.30;99.90
2453;DHT22;63678;47.994;7.854;2022-10-22T05:40:21;13.20;99.90
2453;DHT22;63678;47.994;7.854;2022-10-22T05:43:02;13.20;99.90
2453;DHT22;63678;47.994;7.854;2022-10-22T05:45:41;13.20;99.90
2453;DHT22;63678;47.994;7.854;2022-10-22T05:48:14;13.20;99.90
2453;DHT22;63678;47.994;7.854;2022-10-22T05:50:46;13.20;99.90
2453;DHT22;63678;47.994;7.854;2022-10-22T05:58:27;13.20;99.90
2453;DHT22;63678;47.994;7.854;2022-10-22T06:01:07;13.10;99.90
2453;DHT22;63678;47.994;7.854;2022-10-22T06:03:44;13.20;99.90
2453;DHT22;63678;47.994;7.854;2022-10-22T06:09:01;13.10;99.90
2453;DHT22;63678;47.994;7.854;2022-10-22T06:11:37;13.20;99.90
2453;DHT22;63678;47.994;7.854;2022-10-22T06:14:09;13.20;99.90
2453;DHT22;63678;47.994;7.854;2022-10-22T06:16:42;13.20;99.90
2453;DHT22;63678;47.994;7.854;2022-10-22T06:19:17;13.20;99.90
2453;DHT22;63678;47.994;7.854;2022-10-22T06:24:23;13.20;99.90
2453;DHT22;63678;47.994;7.854;2022-10-22T06:32:01;13.20;99.90
2453;DHT22;63678;47.994;7.854;2022-10-22T06:34:33;13.20;99.90
2453;DHT22;63678;47.994;7.854;2022-10-22T06:39:39;13.20;99.90
2453;DHT22;63678;47.994;7.854;2022-10-22T06:42:12;13.20;99.90
2453;DHT22;63678;47.994;7.854;2022-10-22T06:47:17;13.30;99.90
2453;DHT22;63678;47.994;7.854;2022-10-22T06:49:49;13.30;99.90
2453;DHT22;63678;47.994;7.854;2022-10-22T06:52:22;13.40;99.90
2453;DHT22;63678;47.994;7.854;2022-10-22T06:54:54;13.40;99.90
2453;DHT22;63678;47.994;7.854;2022-10-22T07:00:00;13.50;99.90
2453;DHT22;63678;47.994;7.854;2022-10-22T07:02:33;13.50;99.90
2453;DHT22;63678;47.994;7.854;2022-10-22T07:05:05;13.50;99.90
2453;DHT22;63678;47.994;7.854;2022-10-22T07:07:38;13.50;99.90
2453;DHT22;63678;47.994;7.854;2022-10-22T07:10:10;13.50;99.90
2453;DHT22;63678;47.994;7.854;2022-10-22T07:12:43;13.50;99.90
2453;DHT22;63678;47.994;7.854;2022-10-22T07:22:55;13.80;99.90
2453;DHT22;63678;47.994;7.854;2022-10-22T07:25:27;14.10;99.90
2453;DHT22;63678;47.994;7.854;2022-10-22T07:30:33;14.30;99.90
2453;DHT22;63678;47.994;7.854;2022-10-22T07:33:08;14.40;99.90
2453;DHT22;63678;47.994;7.854;2022-10-22T07:35:41;14.40;99.90
2453;DHT22;63678;47.994;7.854;2022-10-22T07:38:13;14.50;99.90
2453;DHT22;63678;47.994;7.854;2022-10-22T07:40:45;14.50;99.90
2453;DHT22;63678;47.994;7.854;2022-10-22T07:43:18;14.70;99.90
2453;DHT22;63678;47.994;7.854;2022-10-22T07:45:51;14.90;99.90
2453;DHT22;63678;47.994;7.854;2022-10-22T07:48:23;15.00;99.90
2453;DHT22;63678;47.994;7.854;2022-10-22T07:53:29;15.20;99.90
2453;DHT22;63678;47.994;7.854;2022-10-22T07:56:01;15.30;99.90
2453;DHT22;63678;47.994;7.854;2022-10-22T07:58:34;15.30;99.90
2453;DHT22;63678;47.994;7.854;2022-10-22T08:01:07;15.20;99.90
2453;DHT22;63678;47.994;7.854;2022-10-22T08:03:39;15.30;99.90
2453;DHT22;63678;47.994;7.854;2022-10-22T08:06:12;15.40;99.90
2453;DHT22;63678;47.994;7.854;2022-10-22T08:11:19;15.80;99.90
2453;DHT22;63678;47.994;7.854;2022-10-22T08:13:52;15.80;99.90
2453;DHT22;63678;47.994;7.854;2022-10-22T08:21:29;18.50;99.90
2453;DHT22;63678;47.994;7.854;2022-10-22T08:31:40;21.50;99.90
2453;DHT22;63678;47.994;7.854;2022-10-22T08:34:13;21.80;99.90
2453;DHT22;63678;47.994;7.854;2022-10-22T08:36:45;22.20;99.90
2453;DHT22;63678;47.994;7.854;2022-10-22T08:51:17;23.20;99.90
2453;DHT22;63678;47.994;7.854;2022-10-22T08:56:34;22.90;99.90
2453;DHT22;63678;47.994;7.854;2022-10-22T08:59:19;22.40;99.90
2453;DHT22;63678;47.994;7.854;2022-10-22T09:01:54;21.80;99.90
2453;DHT22;63678;47.994;7.854;2022-10-22T09:07:02;22.90;99.90
2453;DHT22;63678;47.994;7.854;2022-10-22T09:09:41;23.00;99.90
2453;DHT22;63678;47.994;7.854;2022-10-22T09:12:15;23.60;99.90
2453;DHT22;63678;47.994;7.854;2022-10-22T09:14:51;23.80;99.90
2453;DHT22;63678;47.994;7.854;2022-10-22T09:17:35;23.30;99.90
2453;DHT22;63678;47.994;7.854;2022-10-22T09:26:16;22.70;99.90
2453;DHT22;63678;47.994;7.854;2022-10-22T09:28:49;21.70;99.90
2453;DHT22;63678;47.994;7.854;2022-10-22T09:31:26;20.70;99.90
2453;DHT22;63678;47.994;7.854;2022-10-22T09:34:00;21.10;99.90
2453;DHT22;63678;47.994;7.854;2022-10-22T09:36:37;21.10;99.90
2453;DHT22;63678;47.994;7.854;2022-10-22T09:39:28;21.70;99.90
2453;DHT22;63678;47.994;7.854;2022-10-22T09:42:05;22.00;99.90
2453;DHT22;63678;47.994;7.854;2022-10-22T09:44:40;22.00;99.90
2453;DHT22;63678;47.994;7.854;2022-10-22T09:47:40;21.50;99.90
2453;DHT22;63678;47.994;7.854;2022-10-22T09:50:28;22.10;99.90
2453;DHT22;63678;47.994;7.854;2022-10-22T09:53:27;22.30;99.90
2453;DHT22;63678;47.994;7.854;2022-10-22T09:56:06;21.90;99.90
2453;DHT22;63678;47.994;7.854;2022-10-22T09:58:46;21.40;99.90
2453;DHT22;63678;47.994;7.854;2022-10-22T10:01:24;21.80;99.90
2453;DHT22;63678;47.994;7.854;2022-10-22T10:04:09;21.60;99.90
2453;DHT22;63678;47.994;7.854;2022-10-22T10:06:52;22.20;99.90
2453;DHT22;63678;47.994;7.854;2022-10-22T10:09:28;22.40;99.90
2453;DHT22;63678;47.994;7.854;2022-10-22T10:12:17;22.60;99.90
2453;DHT22;63678;47.994;7.854;2022-10-22T10:21:08;22.10;99.90
2453;DHT22;63678;47.994;7.854;2022-10-22T10:26:44;22.40;99.90
2453;DHT22;63678;47.994;7.854;2022-10-22T10:29:23;22.30;99.90
2453;DHT22;63678;47.994;7.854;2022-10-22T10:35:23;22.00;99.90
2453;DHT22;63678;47.994;7.854;2022-10-22T10:49:54;21.90;99.90
2453;DHT22;63678;47.994;7.854;2022-10-22T10:56:30;22.00;99.90
2453;DHT22;63678;47.994;7.854;2022-10-22T10:59:34;22.00;99.90
2453;DHT22;63678;47.994;7.854;2022-10-22T11:11:46;22.20;99.90
2453;DHT22;63678;47.994;7.854;2022-10-22T11:14:58;22.00;99.90
2453;DHT22;63678;47.994;7.854;2022-10-22T11:17:44;22.00;99.90
2453;DHT22;63678;47.994;7.854;2022-10-22T11:30:02;22.40;99.90
2453;DHT22;63678;47.994;7.854;2022-10-22T11:32:54;22.30;99.90
2453;DHT22;63678;47.994;7.854;2022-10-22T11:35:30;21.80;99.90
2453;DHT22;63678;47.994;7.854;2022-10-22T11:38:07;22.30;99.90
2453;DHT22;63678;47.994;7.854;2022-10-22T11:40:58;22.40;99.90
2453;DHT22;63678;47.994;7.854;2022-10-22T11:44:09;22.60;99.90
2453;DHT22;63678;47.994;7.854;2022-10-22T11:46:57;21.90;99.90
2453;DHT22;63678;47.994;7.854;2022-10-22T11:49:55;21.90;99.90
2453;DHT22;63678;47.994;7.854;2022-10-22T11:55:28;21.80;99.90
2453;DHT22;63678;47.994;7.854;2022-10-22T12:01:24;22.30;99.90
2453;DHT22;63678;47.994;7.854;2022-10-22T12:04:15;22.00;99.90
2453;DHT22;63678;47.994;7.854;2022-10-22T12:06:54;22.20;99.90
2453;DHT22;63678;47.994;7.854;2022-10-22T12:09:29;22.30;99.90
2453;DHT22;63678;47.994;7.854;2022-10-22T12:12:12;21.80;99.90
2453;DHT22;63678;47.994;7.854;2022-10-22T12:14:56;22.20;99.90
2453;DHT22;63678;47.994;7.854;2022-10-22T12:17:30;22.20;99.90
2453;DHT22;63678;47.994;7.854;2022-10-22T12:20:13;22.00;99.90
2453;DHT22;63678;47.994;7.854;2022-10-22T12:25:22;22.70;99.90
2453;DHT22;63678;47.994;7.854;2022-10-22T12:28:10;22.60;99.90
2453;DHT22;63678;47.994;7.854;2022-10-22T12:30:43;22.60;99.90
2453;DHT22;63678;47.994;7.854;2022-10-22T12:33:21;22.30;99.90
2453;DHT22;63678;47.994;7.854;2022-10-22T12:35:54;22.30;99.90
2453;DHT22;63678;47.994;7.854;2022-10-22T12:46:14;22.10;99.90
2453;DHT22;63678;47.994;7.854;2022-10-22T12:48:47;22.10;99.90
2453;DHT22;63678;47.994;7.854;2022-10-22T12:51:19;22.30;99.90
2453;DHT22;63678;47.994;7.854;2022-10-22T12:54:03;22.00;99.90
2453;DHT22;63678;47.994;7.854;2022-10-22T12:59:36;22.30;99.90
2453;DHT22;63678;47.994;7.854;2022-10-22T13:02:28;22.00;99.90
2453;DHT22;63678;47.994;7.854;2022-10-22T13:05:23;21.90;99.90
2453;DHT22;63678;47.994;7.854;2022-10-22T13:08:15;22.10;99.90
2453;DHT22;63678;47.994;7.854;2022-10-22T13:10:53;22.30;99.90
2453;DHT22;63678;47.994;7.854;2022-10-22T13:13:41;22.50;99.90
2453;DHT22;63678;47.994;7.854;2022-10-22T13:16:24;22.40;99.90
2453;DHT22;63678;47.994;7.854;2022-10-22T13:21:37;22.40;99.90
2453;DHT22;63678;47.994;7.854;2022-10-22T13:24:23;22.30;99.90
2453;DHT22;63678;47.994;7.854;2022-10-22T13:26:56;22.30;99.90
2453;DHT22;63678;47.994;7.854;2022-10-22T13:32:01;22.30;99.90
2453;DHT22;63678;47.994;7.854;2022-10-22T13:37:08;22.40;99.90
2453;DHT22;63678;47.994;7.854;2022-10-22T13:39:40;22.50;99.90
2453;DHT22;63678;47.994;7.854;2022-10-22T13:47:25;22.40;99.90
2453;DHT22;63678;47.994;7.854;2022-10-22T13:50:02;22.40;99.90
2453;DHT22;63678;47.994;7.854;2022-10-22T13:52:42;22.40;99.90
2453;DHT22;63678;47.994;7.854;2022-10-22T13:55:25;22.40;99.90
2453;DHT22;63678;47.994;7.854;2022-10-22T13:58:14;22.40;99.90
2453;DHT22;63678;47.994;7.854;2022-10-22T14:00:55;22.40;99.90
2453;DHT22;63678;47.994;7.854;2022-10-22T14:03:31;22.30;99.90
2453;DHT22;63678;47.994;7.854;2022-10-22T14:06:09;22.30;99.90
2453;DHT22;63678;47.994;7.854;2022-10-22T14:08:46;22.30;99.90
2453;DHT22;63678;47.994;7.854;2022-10-22T14:11:21;22.30;99.90
2453;DHT22;63678;47.994;7.854;2022-10-22T14:13:53;22.40;99.90
2453;DHT22;63678;47.994;7.854;2022-10-22T14:16:27;22.20;99.90
2453;DHT22;63678;47.994;7.854;2022-10-22T14:19:02;22.20;99.90
2453;DHT22;63678;47.994;7.854;2022-10-22T14:21:36;22.10;99.90
2453;DHT22;63678;47.994;7.854;2022-10-22T14:24:09;22.00;99.90
2453;DHT22;63678;47.994;7.854;2022-10-22T14:26:44;21.90;99.90
2453;DHT22;63678;47.994;7.854;2022-10-22T14:29:16;22.00;99.90
2453;DHT22;63678;47.994;7.854;2022-10-22T14:31:48;22.00;99.90
2453;DHT22;63678;47.994;7.854;2022-10-22T14:34:21;21.90;99.90
2453;DHT22;63678;47.994;7.854;2022-10-22T14:41:58;21.80;99.90
2453;DHT22;63678;47.994;7.854;2022-10-22T14:44:30;21.80;99.90
2453;DHT22;63678;47.994;7.854;2022-10-22T15:07:33;21.50;99.90
2453;DHT22;63678;47.994;7.854;2022-10-22T15:10:06;21.40;99.90
2453;DHT22;63678;47.994;7.854;2022-10-22T15:12:39;21.30;99.90
2453;DHT22;63678;47.994;7.854;2022-10-22T15:20:16;21.10;99.90
2453;DHT22;63678;47.994;7.854;2022-10-22T15:27:54;20.80;99.90
2453;DHT22;63678;47.994;7.854;2022-10-22T15:38:14;20.30;99.90
2453;DHT22;63678;47.994;7.854;2022-10-22T15:40:46;20.30;99.90
2453;DHT22;63678;47.994;7.854;2022-10-22T15:46:08;20.10;99.90
2453;DHT22;63678;47.994;7.854;2022-10-22T15:48:48;19.90;99.90
2453;DHT22;63678;47.994;7.854;2022-10-22T15:51:20;19.70;99.90
2453;DHT22;63678;47.994;7.854;2022-10-22T15:53:57;19.50;99.90
2453;DHT22;63678;47.994;7.854;2022-10-22T15:56:30;19.30;99.90
2453;DHT22;63678;47.994;7.854;2022-10-22T15:59:02;19.10;99.90
2453;DHT22;63678;47.994;7.854;2022-10-22T16:01:35;19.00;99.90
2453;DHT22;63678;47.994;7.854;2022-10-22T16:04:08;18.90;99.90
2453;DHT22;63678;47.994;7.854;2022-10-22T16:06:43;18.70;99.90
2453;DHT22;63678;47.994;7.854;2022-10-22T16:09:19;18.70;99.90
2453;DHT22;63678;47.994;7.854;2022-10-22T16:11:53;18.50;99.90
2453;DHT22;63678;47.994;7.854;2022-10-22T16:24:40;18.00;99.90
2453;DHT22;63678;47.994;7.854;2022-10-22T16:29:45;17.80;99.90
2453;DHT22;63678;47.994;7.854;2022-10-22T16:32:17;17.60;99.90
2453;DHT22;63678;47.994;7.854;2022-10-22T16:42:28;17.30;99.90
2453;DHT22;63678;47.994;7.854;2022-10-22T16:45:01;17.20;99.90
2453;DHT22;63678;47.994;7.854;2022-10-22T16:57:51;16.70;99.90
2453;DHT22;63678;47.994;7.854;2022-10-22T17:02:56;16.50;99.90
2453;DHT22;63678;47.994;7.854;2022-10-22T17:08:02;16.30;99.90
2453;DHT22;63678;47.994;7.854;2022-10-22T17:10:35;16.40;99.90
2453;DHT22;63678;47.994;7.854;2022-10-22T17:18:13;16.30;99.90
2453;DHT22;63678;47.994;7.854;2022-10-22T17:20:46;16.20;99.90
2453;DHT22;63678;47.994;7.854;2022-10-22T17:25:57;16.10;99.90
2453;DHT22;63678;47.994;7.854;2022-10-22T17:28:30;16.00;99.90
2453;DHT22;63678;47.994;7.854;2022-10-22T17:31:05;16.00;99.90
2453;DHT22;63678;47.994;7.854;2022-10-22T17:33:38;15.90;99.90
2453;DHT22;63678;47.994;7.854;2022-10-22T17:36:11;15.90;99.90
2453;DHT22;63678;47.994;7.854;2022-10-22T17:38:48;15.80;99.90
2453;DHT22;63678;47.994;7.854;2022-10-22T17:41:24;15.80;99.90
2453;DHT22;63678;47.994;7.854;2022-10-22T17:44:02;15.80;99.90
2453;DHT22;63678;47.994;7.854;2022-10-22T17:46:36;15.80;99.90
2453;DHT22;63678;47.994;7.854;2022-10-22T17:49:16;15.80;99.90
2453;DHT22;63678;47.994;7.854;2022-10-22T17:51:50;15.80;99.90
2453;DHT22;63678;47.994;7.854;2022-10-22T17:54:22;15.70;99.90
2453;DHT22;63678;47.994;7.854;2022-10-22T17:56:54;15.70;99.90
2453;DHT22;63678;47.994;7.854;2022-10-22T17:59:27;15.70;99.90
2453;DHT22;63678;47.994;7.854;2022-10-22T18:01:59;15.60;99.90
2453;DHT22;63678;47.994;7.854;2022-10-22T18:04:34;15.60;99.90
2453;DHT22;63678;47.994;7.854;2022-10-22T18:07:07;15.60;99.90
2453;DHT22;63678;47.994;7.854;2022-10-22T18:17:21;15.50;99.90
2453;DHT22;63678;47.994;7.854;2022-10-22T18:19:53;15.40;99.90
2453;DHT22;63678;47.994;7.854;2022-10-22T18:22:25;15.40;99.90
2453;DHT22;63678;47.994;7.854;2022-10-22T18:24:58;15.30;99.90
2453;DHT22;63678;47.994;7.854;2022-10-22T18:27:30;15.30;99.90
2453;DHT22;63678;47.994;7.854;2022-10-22T18:32:35;15.30;99.90
2453;DHT22;63678;47.994;7.854;2022-10-22T18:35:07;15.20;99.90
2453;DHT22;63678;47.994;7.854;2022-10-22T18:37:40;15.20;99.90
2453;DHT22;63678;47.994;7.854;2022-10-22T18:40:13;15.20;99.90
2453;DHT22;63678;47.994;7.854;2022-10-22T18:42:45;15.20;99.90
2453;DHT22;63678;47.994;7.854;2022-10-22T18:47:50;15.20;99.90
2453;DHT22;63678;47.994;7.854;2022-10-22T18:50:22;15.10;99.90
2453;DHT22;63678;47.994;7.854;2022-10-22T18:52:55;15.10;99.90
2453;DHT22;63678;47.994;7.854;2022-10-22T19:00:33;15.10;99.90
2453;DHT22;63678;47.994;7.854;2022-10-22T19:05:51;15.10;99.90
2453;DHT22;63678;47.994;7.854;2022-10-22T19:10:58;15.00;99.90
2453;DHT22;63678;47.994;7.854;2022-10-22T19:13:30;15.00;99.90
2453;DHT22;63678;47.994;7.854;2022-10-22T19:16:04;15.00;99.90
2453;DHT22;63678;47.994;7.854;2022-10-22T19:18:38;15.10;99.90
2453;DHT22;63678;47.994;7.854;2022-10-22T19:21:11;15.10;99.90
2453;DHT22;63678;47.994;7.854;2022-10-22T19:23:43;15.20;99.90
2453;DHT22;63678;47.994;7.854;2022-10-22T19:26:21;15.20;99.90
2453;DHT22;63678;47.994;7.854;2022-10-22T19:28:56;15.20;99.90
2453;DHT22;63678;47.994;7.854;2022-10-22T19:31:30;15.20;99.90
2453;DHT22;63678;47.994;7.854;2022-10-22T19:34:03;15.20;99.90
2453;DHT22;63678;47.994;7.854;2022-10-22T19:36:36;15.10;99.90
2453;DHT22;63678;47.994;7.854;2022-10-22T19:39:08;15.00;99.90
2453;DHT22;63678;47.994;7.854;2022-10-22T19:44:13;14.80;99.90
2453;DHT22;63678;47.994;7.854;2022-10-22T19:46:46;14.70;99.90
2453;DHT22;63678;47.994;7.854;2022-10-22T19:49:18;14.70;99.90
2453;DHT22;63678;47.994;7.854;2022-10-22T19:54:26;14.60;99.90
2453;DHT22;63678;47.994;7.854;2022-10-22T19:56:58;14.60;99.90
2453;DHT22;63678;47.994;7.854;2022-10-22T19:59:30;14.50;99.90
2453;DHT22;63678;47.994;7.854;2022-10-22T20:04:37;14.50;99.90
2453;DHT22;63678;47.994;7.854;2022-10-22T20:07:09;14.50;99.90
2453;DHT22;63678;47.994;7.854;2022-10-22T20:09:42;14.50;99.90
2453;DHT22;63678;47.994;7.854;2022-10-22T20:12:14;14.50;99.90
2453;DHT22;63678;47.994;7.854;2022-10-22T20:14:46;14.50;99.90
2453;DHT22;63678;47.994;7.854;2022-10-22T20:17:18;14.40;99.90
2453;DHT22;63678;47.994;7.854;2022-10-22T20:19:51;14.50;99.90
2453;DHT22;63678;47.994;7.854;2022-10-22T20:22:23;14.50;99.90
2453;DHT22;63678;47.994;7.854;2022-10-22T20:24:55;14.60;99.90
2453;DHT22;63678;47.994;7.854;2022-10-22T20:27:27;14.60;99.90
2453;DHT22;63678;47.994;7.854;2022-10-22T20:29:59;14.70;99.90
2453;DHT22;63678;47.994;7.854;2022-10-22T20:32:35;14.70;99.90
2453;DHT22;63678;47.994;7.854;2022-10-22T20:35:08;14.60;99.90
2453;DHT22;63678;47.994;7.854;2022-10-22T20:37:40;14.70;99.90
2453;DHT22;63678;47.994;7.854;2022-10-22T20:40:12;14.60;99.90
2453;DHT22;63678;47.994;7.854;2022-10-22T20:42:44;14.60;99.90
2453;DHT22;63678;47.994;7.854;2022-10-22T20:45:18;14.50;99.90
2453;DHT22;63678;47.994;7.854;2022-10-22T20:47:50;14.50;99.90
2453;DHT22;63678;47.994;7.854;2022-10-22T20:53:05;14.50;99.90
2453;DHT22;63678;47.994;7.854;2022-10-22T20:58:10;14.50;99.90
2453;DHT22;63678;47.994;7.854;2022-10-22T21:00:43;14.50;99.90
2453;DHT22;63678;47.994;7.854;2022-10-22T21:03:16;14.50;99.90
2453;DHT22;63678;47.994;7.854;2022-10-22T21:05:49;14.50;99.90
2453;DHT22;63678;47.994;7.854;2022-10-22T21:10:55;14.60;99.90
2453;DHT22;63678;47.994;7.854;2022-10-22T21:13:31;14.60;99.90
2453;DHT22;63678;47.994;7.854;2022-10-22T21:16:12;14.60;99.90
2453;DHT22;63678;47.994;7.854;2022-10-22T21:18:45;14.60;99.90
2453;DHT22;63678;47.994;7.854;2022-10-22T21:21:18;14.70;99.90
2453;DHT22;63678;47.994;7.854;2022-10-22T21:23:51;14.70;99.90
2453;DHT22;63678;47.994;7.854;2022-10-22T21:26:23;14.70;99.90
2453;DHT22;63678;47.994;7.854;2022-10-22T21:28:55;14.70;99.90
2453;DHT22;63678;47.994;7.854;2022-10-22T21:31:28;14.70;99.90
2453;DHT22;63678;47.994;7.854;2022-10-22T21:34:00;14.70;99.90
2453;DHT22;63678;47.994;7.854;2022-10-22T21:39:06;14.60;99.90
2453;DHT22;63678;47.994;7.854;2022-10-22T21:41:38;14.60;99.90
2453;DHT22;63678;47.994;7.854;2022-10-22T21:44:11;14.60;99.90
2453;DHT22;63678;47.994;7.854;2022-10-22T21:49:16;14.60;99.90
2453;DHT22;63678;47.994;7.854;2022-10-22T21:54:23;14.50;99.90
2453;DHT22;63678;47.994;7.854;2022-10-22T21:59:47;14.50;99.90
2453;DHT22;63678;47.994;7.854;2022-10-22T22:04:56;14.60;99.90
2453;DHT22;63678;47.994;7.854;2022-10-22T22:07:29;14.60;99.90
2453;DHT22;63678;47.994;7.854;2022-10-22T22:10:01;14.60;99.90
2453;DHT22;63678;47.994;7.854;2022-10-22T22:12:34;14.60;99.90
2453;DHT22;63678;47.994;7.854;2022-10-22T22:15:07;14.60;99.90
2453;DHT22;63678;47.994;7.854;2022-10-22T22:17:39;14.60;99.90
2453;DHT22;63678;47.994;7.854;2022-10-22T22:25:17;14.60;99.90
2453;DHT22;63678;47.994;7.854;2022-10-22T22:27:49;14.50;99.90
2453;DHT22;63678;47.994;7.854;2022-10-22T22:30:22;14.60;99.90
2453;DHT22;63678;47.994;7.854;2022-10-22T22:35:27;14.70;99.90
2453;DHT22;63678;47.994;7.854;2022-10-22T22:37:59;14.60;99.90